Time;durP1;ratioP1;P1;durP2;ratioP2;P2;SDS_P1;SDS_P2;PMS_P1;PMS_P2;Temp;Humidity;BMP_temperature;BMP_pressure;BME280_temperature;BME280_humidity;BME280_pressure;Samples;Min_cycle;Max_cycle;Signal;HPM_P1;HPM_P2
2020/12/01 00:00:26;;;;;;;9.85;1.80;;;;;;;6.72;77.09;101406.44;5033317;28;20383;-90
2020/12/01 00:02:52;;;;;;;10.35;2.17;;;;;;;6.59;76.68;101425.19;5033268;28;20112;-91
2020/12/01 00:05:20;;;;;;;9.88;1.63;;;;;;;6.60;77.86;101437.34;5033878;28;20368;-90
2020/12/01 00:07:45;;;;;;;9.70;1.90;;;;;;;6.53;77.14;101441.91;5033385;28;20032;-91
2020/12/01 00:10:12;;;;;;;10.95;2.00;;;;;;;6.45;77.97;101447.38;5031784;28;20108;-91
2020/12/01 00:12:40;;;;;;;13.48;2.50;;;;;;;6.32;77.81;101449.56;5032747;28;20108;-90
2020/12/01 00:15:06;;;;;;;11.93;2.78;;;;;;;6.32;77.40;101444.34;5015036;28;20040;-90
2020/12/01 00:17:32;;;;;;;12.20;2.58;;;;;;;6.26;78.32;101443.69;5032959;28;20026;-91
2020/12/01 00:19:57;;;;;;;7.85;1.83;;;;;;;6.29;79.19;101457.47;5032909;28;20021;-90
2020/12/01 00:22:22;;;;;;;13.95;3.25;;;;;;;6.13;79.13;101438.03;5032642;28;20080;-93
2020/12/01 00:24:48;;;;;;;14.57;2.47;;;;;;;6.17;80.01;101444.84;5015341;28;20064;-91
2020/12/01 00:27:13;;;;;;;16.15;2.13;;;;;;;6.20;79.01;101447.38;5032451;28;20037;-90
2020/12/01 00:29:39;;;;;;;9.05;1.85;;;;;;;6.12;79.36;101441.53;5015065;28;20080;-90
2020/12/01 00:32:05;;;;;;;12.00;2.28;;;;;;;6.14;80.01;101445.81;5032734;28;20100;-91
2020/12/01 00:34:30;;;;;;;10.85;1.90;;;;;;;6.04;79.59;101439.19;5015031;28;20044;-90
2020/12/01 00:36:56;;;;;;;10.60;1.80;;;;;;;5.98;79.58;101447.19;5014927;28;20025;-91
2020/12/01 00:39:22;;;;;;;13.63;2.35;;;;;;;5.93;79.59;101439.50;5032254;28;20025;-90
2020/12/01 00:41:51;;;;;;;9.02;1.65;;;;;;;5.95;81.39;101460.34;5031150;28;20025;-90
2020/12/01 00:44:16;;;;;;;17.67;2.40;;;;;;;5.88;80.73;101454.41;5032556;28;20390;-91
2020/12/01 00:46:42;;;;;;;11.27;1.92;;;;;;;5.82;80.87;101454.63;5014944;28;20036;-90
2020/12/01 00:49:07;;;;;;;11.18;1.30;;;;;;;5.78;80.46;101447.78;5032363;28;20021;-90
2020/12/01 00:51:33;;;;;;;14.55;2.58;;;;;;;5.79;80.42;101453.88;5014750;28;20545;-90
2020/12/01 00:53:58;;;;;;;9.60;2.25;;;;;;;5.66;80.00;101433.41;5014683;28;20029;-90
2020/12/01 00:56:24;;;;;;;17.35;2.63;;;;;;;5.65;79.72;101452.56;5031929;28;20029;-91
2020/12/01 00:58:50;;;;;;;12.57;1.85;;;;;;;5.68;81.13;101457.66;5033254;28;20022;-90
2020/12/01 01:01:16;;;;;;;16.20;2.50;;;;;;;5.62;80.64;101462.22;5038379;28;20030;-90
2020/12/01 01:03:42;;;;;;;9.35;2.00;;;;;;;5.63;80.77;101459.56;5038086;28;20112;-89
2020/12/01 01:06:12;;;;;;;11.50;2.10;;;;;;;5.59;80.45;101462.28;5038702;28;20441;-89
2020/12/01 01:08:40;;;;;;;12.63;1.88;;;;;;;5.62;80.49;101459.59;5041030;28;20495;-90
2020/12/01 01:11:08;;;;;;;11.85;2.65;;;;;;;5.54;80.30;101465.03;5023126;28;20379;-90
2020/12/01 01:13:34;;;;;;;8.55;1.90;;;;;;;5.46;80.69;101457.44;5040530;28;20067;-89
2020/12/01 01:16:00;;;;;;;19.33;2.42;;;;;;;5.48;80.54;101455.66;5035981;28;20070;-89
2020/12/01 01:18:26;;;;;;;13.35;2.00;;;;;;;5.46;80.50;101462.66;5037840;28;20108;-91
2020/12/01 01:20:51;;;;;;;9.90;1.73;;;;;;;5.35;81.08;101465.59;5021501;28;20052;-90
2020/12/01 01:23:17;;;;;;;9.70;1.90;;;;;;;5.37;81.28;101473.34;5039384;28;20039;-90
2020/12/01 01:25:42;;;;;;;14.13;2.47;;;;;;;5.31;80.99;101469.19;5038913;28;20025;-89
2020/12/01 01:28:07;;;;;;;11.57;1.95;;;;;;;5.28;81.39;101458.84;5037652;28;20033;-90
2020/12/01 01:30:33;;;;;;;18.02;1.85;;;;;;;5.22;81.41;101463.41;5039428;28;20033;-90
2020/12/01 01:32:58;;;;;;;19.80;2.53;;;;;;;5.01;81.78;101454.44;5035856;28;20029;-90
2020/12/01 01:35:24;;;;;;;12.23;2.10;;;;;;;5.16;81.07;101467.88;5041428;28;20055;-89
2020/12/01 01:37:49;;;;;;;15.82;2.25;;;;;;;5.01;80.60;101459.63;5042713;28;20052;-89
2020/12/01 01:40:21;;;;;;;15.80;2.33;;;;;;;5.10;81.39;101486.25;5042383;28;20040;-89
2020/12/01 01:42:46;;;;;;;14.68;2.25;;;;;;;4.99;82.50;101480.50;5040988;28;20033;-90
2020/12/01 01:45:12;;;;;;;6.45;1.63;;;;;;;5.01;82.72;101489.13;5038909;28;20117;-90
2020/12/01 01:47:38;;;;;;;19.85;2.75;;;;;;;4.94;82.39;101475.44;5036033;28;20025;-90
2020/12/01 01:50:13;;;;;;;12.48;2.22;;;;;;;4.86;82.29;101492.13;5018554;28;20021;-91
2020/12/01 01:52:40;;;;;;;17.52;2.67;;;;;;;4.77;82.42;101481.06;5036467;28;20542;-91
2020/12/01 01:55:12;;;;;;;16.92;2.60;;;;;;;4.76;82.48;101479.38;5035998;28;20434;-91
2020/12/01 01:57:38;;;;;;;15.35;2.13;;;;;;;4.70;82.29;101487.34;5035917;28;20487;-91
2020/12/01 02:00:30;;;;;;;9.90;2.08;;;;;;;4.61;83.08;101477.19;5036013;28;20033;-91
2020/12/01 02:02:55;;;;;;;13.70;2.47;;;;;;;4.65;83.29;101486.59;5035864;28;20017;-91
2020/12/01 02:05:20;;;;;;;6.07;1.50;;;;;;;4.64;83.63;101490.13;5035730;28;20053;-91
2020/12/01 02:07:46;;;;;;;15.25;1.95;;;;;;;4.61;83.80;101484.97;5035918;28;20819;-90
2020/12/01 02:10:11;;;;;;;15.60;2.60;;;;;;;4.60;83.47;101501.50;5035388;28;20025;-90
2020/12/01 02:12:40;;;;;;;10.75;1.65;;;;;;;4.53;83.69;101490.38;5035199;28;20049;-90
2020/12/01 02:15:08;;;;;;;16.67;3.67;;;;;;;4.56;83.39;101499.84;5035303;28;20026;-91
2020/12/01 02:17:37;;;;;;;9.50;1.85;;;;;;;4.56;83.71;101500.72;5035742;28;20036;-90
2020/12/01 02:20:10;;;;;;;10.52;2.08;;;;;;;4.53;82.79;101505.13;5035577;28;20108;-90
2020/12/01 02:22:36;;;;;;;17.73;3.33;;;;;;;4.36;83.60;101500.34;5035326;28;20021;-90
2020/12/01 02:25:02;;;;;;;9.52;1.92;;;;;;;4.37;83.83;101505.50;5035002;28;20033;-91
2020/12/01 02:27:28;;;;;;;16.77;2.42;;;;;;;4.29;83.45;101491.84;5035320;28;20079;-92
2020/12/01 02:29:56;;;;;;;14.77;3.28;;;;;;;4.40;83.90;101501.13;5035746;28;20510;-90
2020/12/01 02:32:26;;;;;;;8.93;1.42;;;;;;;4.45;83.82;101509.69;5035368;28;20026;-91
2020/12/01 02:34:53;;;;;;;12.05;2.38;;;;;;;4.44;84.33;101507.97;5033700;28;20447;-91
2020/12/01 02:37:22;;;;;;;17.95;2.30;;;;;;;4.38;84.31;101498.56;5035055;28;20033;-90
2020/12/01 02:39:48;;;;;;;12.82;2.72;;;;;;;4.45;83.43;101507.06;5034851;28;20022;-92
2020/12/01 02:42:22;;;;;;;12.52;2.15;;;;;;;4.44;83.79;101513.16;5034819;28;20505;-90
2020/12/01 02:44:47;;;;;;;13.15;1.80;;;;;;;4.35;84.15;101506.44;5034932;28;20156;-90
2020/12/01 02:47:13;;;;;;;9.82;1.98;;;;;;;4.32;83.55;101511.72;5034197;28;20068;-90
2020/12/01 02:49:38;;;;;;;9.82;1.63;;;;;;;4.36;84.39;101514.22;5034819;28;20119;-91
2020/12/01 02:52:04;;;;;;;13.02;1.80;;;;;;;4.31;83.78;101512.63;5034863;28;20048;-91
2020/12/01 02:54:30;;;;;;;10.90;2.00;;;;;;;4.34;83.64;101518.59;5034471;28;20029;-91
2020/12/01 02:56:56;;;;;;;18.67;2.08;;;;;;;4.35;84.16;101528.09;5034647;28;20753;-90
2020/12/01 02:59:22;;;;;;;13.68;2.20;;;;;;;4.23;84.57;101512.78;5034572;28;20029;-91
2020/12/01 03:01:47;;;;;;;10.48;1.92;;;;;;;4.26;84.33;101520.50;5034451;28;20105;-90
2020/12/01 03:04:13;;;;;;;8.35;2.33;;;;;;;4.35;84.26;101533.28;5033020;28;20107;-91
2020/12/01 03:06:38;;;;;;;12.45;2.72;;;;;;;4.31;84.65;101529.06;5034181;28;20070;-91
2020/12/01 03:09:10;;;;;;;12.15;1.80;;;;;;;4.31;84.21;101536.00;5034381;28;20505;-91
2020/12/01 03:11:35;;;;;;;8.32;2.33;;;;;;;4.25;83.72;101521.41;5033686;28;20036;-90
2020/12/01 03:14:01;;;;;;;16.95;2.47;;;;;;;4.19;83.68;101526.75;5016240;28;20034;-91
2020/12/01 03:16:26;;;;;;;9.25;2.25;;;;;;;4.21;84.30;101530.19;5032863;28;20032;-90
2020/12/01 03:18:52;;;;;;;9.77;2.30;;;;;;;4.16;84.12;101532.88;5016384;28;20031;-90
2020/12/01 03:21:17;;;;;;;12.80;1.77;;;;;;;4.17;84.63;101534.59;5016057;28;20039;-89
2020/12/01 03:23:43;;;;;;;14.45;1.88;;;;;;;4.16;84.85;101534.63;5034468;28;20034;-91
2020/12/01 03:26:13;;;;;;;12.40;2.80;;;;;;;4.14;84.29;101539.84;5016304;28;20026;-91
2020/12/01 03:28:40;;;;;;;12.05;1.95;;;;;;;4.09;84.23;101546.06;5034275;28;20029;-90
2020/12/01 03:31:05;;;;;;;24.17;3.80;;;;;;;4.05;84.11;101528.81;5033956;28;20104;-90
2020/12/01 03:33:31;;;;;;;10.80;1.90;;;;;;;4.02;83.98;101524.53;5034600;28;20100;-90
2020/12/01 03:35:56;;;;;;;10.50;1.55;;;;;;;4.04;85.08;101538.34;5033867;28;20458;-90
2020/12/01 03:38:22;;;;;;;13.85;1.73;;;;;;;4.03;84.41;101530.59;5016348;28;20431;-89
2020/12/01 03:40:47;;;;;;;14.50;1.98;;;;;;;3.94;84.79;101524.72;5033398;28;20514;-90
2020/12/01 03:43:13;;;;;;;25.80;4.28;;;;;;;3.97;85.29;101532.44;5033704;28;20029;-90
2020/12/01 03:45:39;;;;;;;12.63;1.80;;;;;;;3.97;84.50;101545.44;5033626;28;20469;-89
2020/12/01 03:48:05;;;;;;;21.75;2.63;;;;;;;3.93;83.90;101545.53;5032935;28;20029;-90
2020/12/01 03:50:31;;;;;;;17.65;2.47;;;;;;;3.86;84.39;101543.97;5016013;28;20025;-90
2020/12/01 03:52:57;;;;;;;11.82;1.70;;;;;;;3.79;85.13;101527.63;5016106;28;20033;-90
2020/12/01 03:55:24;;;;;;;11.63;1.55;;;;;;;3.91;84.68;101542.97;5015729;28;20025;-90
2020/12/01 03:57:51;;;;;;;14.55;1.73;;;;;;;3.95;84.79;101541.19;5033392;28;20029;-90
2020/12/01 04:00:25;;;;;;;10.93;1.45;;;;;;;3.96;84.97;101541.13;5015395;28;20426;-91
2020/12/01 04:02:52;;;;;;;18.05;2.47;;;;;;;3.98;84.55;101539.34;5015421;28;20615;-90
2020/12/01 04:05:20;;;;;;;15.93;2.10;;;;;;;3.95;85.26;101541.19;5033339;28;20026;-91
2020/12/01 04:07:46;;;;;;;12.02;2.17;;;;;;;3.89;85.30;101539.56;5033372;28;20415;-90
2020/12/01 04:10:14;;;;;;;15.50;4.07;;;;;;;3.86;84.49;101538.78;5015473;28;20530;-89
2020/12/01 04:12:40;;;;;;;7.90;1.42;;;;;;;3.90;84.35;101535.22;5033229;28;20025;-91
2020/12/01 04:15:05;;;;;;;16.80;2.88;;;;;;;3.89;84.73;101539.56;5033006;28;20033;-90
2020/12/01 04:17:31;;;;;;;11.75;1.70;;;;;;;3.94;84.80;101542.91;5015027;28;20167;-90
2020/12/01 04:19:56;;;;;;;8.55;1.48;;;;;;;3.95;84.37;101547.22;5033168;28;20116;-91
2020/12/01 04:22:22;;;;;;;12.63;1.88;;;;;;;3.92;84.42;101544.69;5015161;28;20468;-90
2020/12/01 04:24:48;;;;;;;19.58;3.00;;;;;;;3.72;84.88;101537.31;5014831;28;20475;-90
2020/12/01 04:27:14;;;;;;;16.20;1.63;;;;;;;3.93;84.18;101551.59;5032832;28;20053;-90
2020/12/01 04:29:41;;;;;;;11.40;1.70;;;;;;;3.97;84.45;101548.03;5032775;28;20063;-90
2020/12/01 04:32:07;;;;;;;12.45;1.85;;;;;;;4.00;84.86;101559.25;5032596;28;20080;-90
2020/12/01 04:34:33;;;;;;;10.65;1.88;;;;;;;3.94;84.68;101558.50;5015187;28;20033;-90
2020/12/01 04:36:59;;;;;;;11.93;1.95;;;;;;;3.98;84.87;101557.53;5015323;28;20430;-91
2020/12/01 04:39:25;;;;;;;7.53;2.03;;;;;;;3.98;84.76;101560.13;5014982;28;20104;-91
2020/12/01 04:41:52;;;;;;;17.27;3.45;;;;;;;4.03;84.54;101564.38;5032485;28;20109;-90
2020/12/01 04:44:29;;;;;;;17.92;1.98;;;;;;;4.01;84.63;101563.53;5032682;28;20494;-90
2020/12/01 04:46:57;;;;;;;15.95;1.95;;;;;;;4.06;84.21;101566.91;5014799;28;20558;-90
2020/12/01 04:49:31;;;;;;;29.88;4.25;;;;;;;4.06;84.64;101567.75;5032237;28;20021;-90
2020/12/01 04:52:43;;;;;;;11.80;3.15;;;;;;;4.08;83.98;101573.78;5032354;28;20025;-90
2020/12/01 04:55:37;;;;;;;7.95;1.58;;;;;;;4.10;84.46;101573.75;4978748;28;20035;-91
2020/12/01 04:58:51;;;;;;;12.02;1.98;;;;;;;4.14;84.24;101559.78;5015507;28;20136;-90
2020/12/01 05:01:33;;;;;;;8.68;1.52;;;;;;;4.11;84.60;101565.06;5032274;28;20057;-90
2020/12/01 05:04:01;;;;;;;10.93;2.75;;;;;;;4.14;84.36;101575.38;5014350;28;20040;-90
2020/12/01 05:09:11;;;;;;;7.25;1.60;;;;;;;4.16;83.85;101568.41;5032185;28;20459;-90
2020/12/01 05:11:51;;;;;;;7.43;1.30;;;;;;;4.06;84.83;101574.72;5032168;28;20032;-91
2020/12/01 05:14:47;;;;;;;10.07;1.40;;;;;;;4.09;84.30;101574.66;5031949;28;20048;-89
2020/12/01 05:17:31;;;;;;;14.00;2.10;;;;;;;4.12;84.87;101579.78;5013972;28;20044;-90
2020/12/01 05:19:56;;;;;;;17.15;3.60;;;;;;;4.06;84.07;101572.09;5032058;28;20033;-89
2020/12/01 05:22:22;;;;;;;14.55;1.83;;;;;;;4.09;84.57;101579.84;5014059;28;20446;-90
2020/12/01 05:24:53;;;;;;;16.05;1.92;;;;;;;4.05;84.81;101585.97;5031786;28;20082;-90
2020/12/01 05:27:21;;;;;;;12.95;1.90;;;;;;;4.00;84.22;101580.03;5031785;28;20026;-90
2020/12/01 05:29:52;;;;;;;10.55;1.85;;;;;;;4.06;84.26;101585.09;5030791;28;20034;-90
2020/12/01 05:32:30;;;;;;;10.52;1.58;;;;;;;3.93;84.78;101574.97;5031523;28;20028;-90
2020/12/01 05:35:17;;;;;;;10.38;1.88;;;;;;;4.09;84.12;101590.25;5031980;28;20107;-91
2020/12/01 05:38:15;;;;;;;16.70;2.33;;;;;;;4.05;85.47;101596.38;5031758;28;20026;-90
2020/12/01 05:40:50;;;;;;;10.25;1.85;;;;;;;4.05;85.03;101598.97;5032166;28;20064;-89
2020/12/01 05:43:24;;;;;;;14.88;1.75;;;;;;;4.00;84.60;101609.47;5031776;28;20029;-91
2020/12/01 05:45:49;;;;;;;4.38;1.42;;;;;;;4.01;84.30;101602.53;5031592;28;20022;-90
2020/12/01 05:49:04;;;;;;;10.73;1.95;;;;;;;4.05;84.47;101604.16;5031667;28;20044;-90
2020/12/01 05:51:45;;;;;;;8.80;1.58;;;;;;;4.00;84.60;101603.44;5026753;28;20052;-90
2020/12/01 05:54:35;;;;;;;11.43;1.77;;;;;;;4.01;84.62;101608.59;5014196;28;20183;-90
2020/12/01 05:57:01;;;;;;;10.63;2.13;;;;;;;3.91;84.98;101596.66;4986457;28;20120;-90
2020/12/01 05:59:27;;;;;;;10.32;1.60;;;;;;;3.88;84.13;101602.78;5031643;28;20044;-90
2020/12/01 06:01:59;;;;;;;15.57;1.75;;;;;;;3.87;84.86;101602.81;5031137;28;20488;-90
2020/12/01 06:04:26;;;;;;;8.57;1.73;;;;;;;3.75;84.79;101598.72;5031315;28;20036;-90
2020/12/01 06:07:12;;;;;;;10.70;2.65;;;;;;;3.77;84.27;101621.22;5031617;28;20092;-91
2020/12/01 06:09:54;;;;;;;11.35;1.63;;;;;;;3.72;84.83;101619.59;5013901;28;20395;-90
2020/12/01 06:12:31;;;;;;;13.15;2.33;;;;;;;3.71;85.00;101623.06;5031647;28;20092;-91
2020/12/01 06:15:03;;;;;;;8.40;1.67;;;;;;;3.70;85.55;101631.75;5031424;28;20037;-90
2020/12/01 06:17:44;;;;;;;19.00;1.90;;;;;;;3.63;85.02;101623.22;5030518;28;20025;-91
2020/12/01 06:20:19;;;;;;;12.43;1.55;;;;;;;3.65;84.98;101631.81;5031281;28;20029;-91
2020/12/01 06:23:23;;;;;;;9.52;1.88;;;;;;;3.59;85.18;101629.34;5034396;28;20033;-91
2020/12/01 06:26:07;;;;;;;11.55;1.52;;;;;;;3.60;85.71;101638.03;5034911;28;20088;-92
2020/12/01 06:29:02;;;;;;;7.70;1.40;;;;;;;3.62;85.23;101636.25;5017302;28;20413;-90
2020/12/01 06:32:05;;;;;;;8.63;2.92;;;;;;;3.63;85.37;101643.13;5034900;28;20089;-91
2020/12/01 06:34:57;;;;;;;9.10;1.50;;;;;;;3.56;85.51;101639.81;5011914;28;20045;-91
2020/12/01 06:38:06;;;;;;;9.30;1.40;;;;;;;3.57;85.71;101641.50;5034825;28;20479;-90
2020/12/01 06:40:54;;;;;;;8.63;1.80;;;;;;;3.63;85.53;101645.75;5033286;28;20030;-91
2020/12/01 06:43:24;;;;;;;9.07;1.33;;;;;;;3.63;85.82;101646.59;5017322;28;20049;-91
2020/12/01 06:45:57;;;;;;;8.25;1.77;;;;;;;3.63;85.22;101648.34;5017134;28;20025;-92
2020/12/01 06:48:39;;;;;;;9.60;1.38;;;;;;;3.62;85.73;101644.88;5034371;28;20029;-91
2020/12/01 06:51:08;;;;;;;5.03;1.10;;;;;;;3.60;85.37;101651.00;5034676;28;20403;-91
2020/12/01 06:53:36;;;;;;;17.92;1.70;;;;;;;3.58;85.65;101649.28;5016708;28;20030;-91
2020/12/01 06:56:04;;;;;;;10.50;1.50;;;;;;;3.66;85.87;101671.66;5034514;28;20064;-91
2020/12/01 06:58:29;;;;;;;12.82;1.63;;;;;;;3.68;85.60;101669.91;5034860;28;20026;-91
2020/12/01 07:01:07;;;;;;;12.43;1.67;;;;;;;3.70;85.62;101670.72;5034216;28;20087;-91
2020/12/01 07:03:33;;;;;;;7.72;1.70;;;;;;;3.70;85.24;101668.97;5033044;28;20021;-91
2020/12/01 07:06:31;;;;;;;19.65;2.70;;;;;;;3.68;85.65;101682.88;5034222;28;20051;-91
2020/12/01 07:09:14;;;;;;;14.85;2.38;;;;;;;3.67;85.40;101678.56;5023999;28;20036;-91
2020/12/01 07:11:51;;;;;;;;;;;;;;;3.73;84.89;101675.84;5034539;28;20096;-92
2020/12/01 07:14:22;;;;;;;8.40;1.73;;;;;;;3.74;85.13;101685.38;5034235;28;20349;-91
2020/12/01 07:16:49;;;;;;;11.77;1.50;;;;;;;3.67;85.23;101668.16;5034011;28;20059;-91
2020/12/01 07:19:37;;;;;;;5.85;1.35;;;;;;;3.71;84.83;101669.81;5016069;28;20037;-91
2020/12/01 07:22:35;;;;;;;5.50;1.58;;;;;;;3.66;84.64;101682.91;5033251;28;20132;-91
2020/12/01 07:25:25;;;;;;;10.32;1.83;;;;;;;3.67;85.31;101686.34;5033945;28;20483;-92
2020/12/01 07:28:15;;;;;;;11.40;1.85;;;;;;;3.64;84.83;101676.03;5033858;28;20029;-91
2020/12/01 07:30:55;;;;;;;12.18;2.00;;;;;;;3.61;84.77;101674.34;5033858;28;20037;-91
2020/12/01 07:33:35;;;;;;;11.85;4.53;;;;;;;3.60;85.09;101674.38;5033327;28;20491;-91
2020/12/01 07:36:15;;;;;;;30.50;10.52;;;;;;;3.63;85.42;101682.94;5015971;28;20036;-91
2020/12/01 07:38:43;;;;;;;25.85;9.57;;;;;;;3.52;85.55;101684.91;5034025;28;20025;-91
2020/12/01 07:41:25;;;;;;;32.05;12.60;;;;;;;3.51;85.13;101683.19;5033755;28;20083;-91
2020/12/01 07:44:11;;;;;;;44.05;18.23;;;;;;;3.48;84.78;101693.66;5033654;28;20037;-92
2020/12/01 07:49:20;;;;;;;28.73;9.57;;;;;;;3.50;85.14;101687.53;5033553;28;20032;-90
2020/12/01 07:51:47;;;;;;;23.70;8.32;;;;;;;3.43;85.06;101690.25;5033473;28;20029;-90
2020/12/01 07:54:25;;;;;;;34.05;15.13;;;;;;;3.37;85.36;101689.47;5033555;28;20029;-90
2020/12/01 07:56:50;;;;;;;69.30;27.23;;;;;;;3.37;85.08;101701.59;5033181;28;20029;-90
2020/12/01 07:59:16;;;;;;;71.97;28.80;;;;;;;3.32;84.71;101709.47;5033900;28;20018;-91
2020/12/01 08:01:43;;;;;;;61.80;22.88;;;;;;;3.18;85.32;101686.34;5032777;28;20100;-90
2020/12/01 08:04:20;;;;;;;29.20;12.10;;;;;;;3.16;85.92;101706.28;5033133;28;20025;-91
2020/12/01 08:06:56;;;;;;;12.63;6.00;;;;;;;3.17;85.95;101713.16;5032764;28;20517;-91
2020/12/01 08:09:24;;;;;;;18.85;6.07;;;;;;;3.14;85.95;101721.03;5032848;28;20025;-91
2020/12/01 08:11:54;;;;;;;22.98;4.22;;;;;;;3.27;85.61;101720.81;5032230;28;20037;-92
2020/12/01 08:14:20;;;;;;;10.55;2.95;;;;;;;3.25;85.48;101732.97;5014978;28;20025;-92
2020/12/01 08:17:10;;;;;;;13.75;2.88;;;;;;;3.33;86.03;101731.94;5034492;28;20048;-92
2020/12/01 08:19:36;;;;;;;9.27;1.90;;;;;;;3.32;85.55;101726.81;5041166;28;20040;-90
2020/12/01 08:22:05;;;;;;;15.88;2.67;;;;;;;3.36;85.64;101728.47;5013796;28;20391;-92
2020/12/01 08:24:34;;;;;;;8.13;1.48;;;;;;;3.43;85.61;101727.47;5032709;28;20040;-93
2020/12/01 08:27:14;;;;;;;6.65;2.00;;;;;;;3.58;85.18;101737.59;5014976;28;20032;-91
2020/12/01 08:29:40;;;;;;;7.28;1.40;;;;;;;3.67;85.53;101733.94;5014425;28;20038;-91
2020/12/01 08:32:12;;;;;;;6.88;1.40;;;;;;;3.76;85.51;101740.75;5032334;28;20026;-91
2020/12/01 08:34:49;;;;;;;10.32;1.80;;;;;;;3.80;85.20;101732.00;5032755;28;20021;-92
2020/12/01 08:37:26;;;;;;;5.78;1.33;;;;;;;3.92;85.59;101736.13;5032018;28;20033;-91
2020/12/01 08:40:07;;;;;;;7.88;1.35;;;;;;;4.00;84.53;101738.56;5031311;28;20064;-91
2020/12/01 08:42:48;;;;;;;7.93;1.85;;;;;;;4.05;84.26;101740.19;5010590;28;20395;-93
2020/12/01 08:45:13;;;;;;;6.65;1.45;;;;;;;4.17;83.83;101745.16;5014245;28;20068;-92
2020/12/01 08:59:47;;;;;;;8.10;1.85;;;;;;;5.47;79.09;101750.94;5084359;28;20344;-90
2020/12/01 09:02:15;;;;;;;8.18;1.60;;;;;;;5.54;79.06;101760.28;5068133;28;20033;-92
2020/12/01 09:04:40;;;;;;;9.20;1.67;;;;;;;5.45;79.07;101747.50;5068462;28;20486;-91
2020/12/01 09:07:18;;;;;;;11.02;1.40;;;;;;;5.39;78.66;101763.28;5056618;28;20071;-91
2020/12/01 09:10:13;;;;;;;9.18;1.70;;;;;;;5.57;78.15;101760.22;5048187;28;20079;-91
2020/12/01 09:12:54;;;;;;;13.40;2.67;;;;;;;5.47;79.21;101758.75;5029046;28;20037;-93
2020/12/01 09:23:13;;;;;;;6.70;2.28;;;;;;;5.85;77.92;101767.31;5050380;28;20445;-92
2020/12/01 09:25:41;;;;;;;6.70;1.60;;;;;;;5.94;77.29;101761.88;5049176;28;20076;-92
2020/12/01 09:28:28;;;;;;;6.60;1.60;;;;;;;6.03;77.29;101765.16;5048661;28;20364;-93
2020/12/01 09:31:04;;;;;;;5.05;2.08;;;;;;;5.92;78.29;101766.28;5048646;28;20024;-91
2020/12/01 09:33:30;;;;;;;8.65;1.85;;;;;;;6.14;77.28;101765.69;5047890;28;20593;-93
2020/12/01 09:35:55;;;;;;;8.70;2.53;;;;;;;6.30;76.80;101763.50;5047964;28;20029;-94
2020/12/01 09:38:21;;;;;;;10.35;2.60;;;;;;;6.54;76.39;101770.66;5048721;28;20036;-92
2020/12/01 09:40:50;;;;;;;15.00;3.30;;;;;;;6.51;75.54;101773.34;5049011;28;20028;-93
2020/12/01 09:43:24;;;;;;;8.85;2.70;;;;;;;6.82;75.21;101762.00;5047342;28;20029;-92
2020/12/01 09:45:51;;;;;;;9.00;2.25;;;;;;;6.96;74.72;101774.63;5029626;28;20026;-93
2020/12/01 09:48:41;;;;;;;12.40;1.90;;;;;;;7.38;73.84;101781.16;5042433;28;20045;-93
2020/12/01 09:51:07;;;;;;;5.20;1.58;;;;;;;7.95;72.36;101780.94;5049670;28;20030;-92
2020/12/01 09:53:49;;;;;;;5.80;1.50;;;;;;;8.60;70.18;101777.78;5045832;28;20033;-93
2020/12/01 10:18:06;;;;;;;5.60;1.08;;;;;;;14.26;50.06;101761.19;5035626;28;20463;-92
2020/12/01 10:25:52;;;;;;;9.05;2.00;;;;;;;14.06;50.04;101767.69;5035831;28;20048;-92
2020/12/01 10:36:40;;;;;;;6.38;1.48;;;;;;;14.62;49.23;101754.56;5034311;28;20048;-92
2020/12/01 10:39:07;;;;;;;6.22;1.23;;;;;;;15.03;48.87;101752.84;5031837;28;20503;-92
2020/12/01 10:41:33;;;;;;;7.75;1.50;;;;;;;15.75;46.97;101761.28;5019480;28;20031;-93
2020/12/01 10:44:00;;;;;;;6.65;1.83;;;;;;;15.49;45.35;101756.88;5032829;28;20112;-91
2020/12/01 10:46:26;;;;;;;8.70;1.85;;;;;;;14.74;46.72;101758.22;5028848;28;20057;-92
2020/12/01 10:48:51;;;;;;;8.30;1.60;;;;;;;15.06;46.56;101756.13;5031259;28;20569;-92
2020/12/01 10:51:17;;;;;;;6.93;2.28;;;;;;;15.21;46.70;101756.91;5030319;28;20108;-92
2020/12/01 10:53:43;;;;;;;7.65;1.85;;;;;;;15.08;47.06;101758.66;5034236;28;20387;-93
2020/12/01 10:56:09;;;;;;;6.47;1.67;;;;;;;15.21;46.46;101759.56;5034034;28;20046;-92
2020/12/01 10:58:34;;;;;;;6.50;1.90;;;;;;;14.65;47.40;101762.31;5032456;28;20025;-92
2020/12/01 11:01:01;;;;;;;5.50;1.55;;;;;;;14.50;48.76;101762.41;5033073;28;20021;-92
2020/12/01 11:03:26;;;;;;;7.25;1.77;;;;;;;14.02;49.84;101763.53;5034346;28;20060;-94
2020/12/01 11:05:52;;;;;;;7.97;2.13;;;;;;;14.44;48.32;101759.19;5032892;28;20053;-94
2020/12/01 11:08:18;;;;;;;6.00;1.73;;;;;;;14.77;48.50;101758.03;5035299;28;20475;-93
2020/12/01 11:10:43;;;;;;;7.18;2.10;;;;;;;14.82;48.36;101744.50;5033452;28;20061;-93
2020/12/01 11:13:09;;;;;;;8.80;2.75;;;;;;;14.95;47.46;101740.13;5034666;28;20021;-90
2020/12/01 11:15:35;;;;;;;12.23;2.97;;;;;;;14.99;47.46;101743.41;5034214;28;20025;-91
2020/12/01 11:18:00;;;;;;;9.63;2.25;;;;;;;15.15;46.94;101736.16;5038143;28;20132;-96
2020/12/01 11:20:26;;;;;;;9.52;3.05;;;;;;;15.10;47.66;101732.13;5040875;28;20032;-92
2020/12/01 11:22:52;;;;;;;7.78;1.73;;;;;;;14.45;48.36;101733.59;5027687;28;20057;-92
2020/12/01 11:25:18;;;;;;;9.45;2.30;;;;;;;14.52;49.00;101742.00;5034322;28;20040;-92
2020/12/01 11:27:44;;;;;;;6.72;1.92;;;;;;;14.40;49.54;101733.06;5033633;28;20032;-92
2020/12/01 11:30:10;;;;;;;8.30;2.08;;;;;;;14.56;47.79;101735.56;5031991;28;20519;-92
2020/12/01 11:32:35;;;;;;;9.38;1.70;;;;;;;14.28;48.53;101739.94;5038107;28;20113;-96
2020/12/01 11:35:02;;;;;;;8.60;2.40;;;;;;;13.81;50.77;101741.91;5036506;28;20690;-96
2020/12/01 11:37:27;;;;;;;5.55;2.20;;;;;;;14.32;49.46;101737.97;5035107;28;20055;-96
2020/12/01 11:39:52;;;;;;;4.10;1.75;;;;;;;14.19;49.90;101728.16;5035713;28;20112;-96
2020/12/01 11:42:18;;;;;;;13.18;2.60;;;;;;;14.63;47.55;101744.81;5035200;28;20025;-96
2020/12/01 11:44:43;;;;;;;10.07;3.10;;;;;;;15.19;47.24;101736.81;5035448;28;20365;-96
2020/12/01 11:47:09;;;;;;;6.88;1.65;;;;;;;15.21;45.74;101729.63;5036196;28;20033;-96
2020/12/01 11:49:34;;;;;;;5.38;1.80;;;;;;;14.52;48.05;101719.06;5035601;28;20048;-96
2020/12/01 11:52:00;;;;;;;10.05;2.05;;;;;;;15.01;47.66;101720.38;5035467;28;20092;-96
2020/12/01 11:54:26;;;;;;;8.75;2.08;;;;;;;14.78;47.24;101716.56;5035235;28;20029;-96
2020/12/01 11:56:51;;;;;;;7.13;1.45;;;;;;;14.74;48.24;101715.06;5034235;28;20593;-96
2020/12/01 11:59:16;;;;;;;11.55;2.05;;;;;;;14.55;48.60;101731.22;5034440;28;20364;-96
2020/12/01 12:01:42;;;;;;;4.78;1.75;;;;;;;15.20;46.91;101707.59;5033388;28;20024;-96
2020/12/01 12:04:07;;;;;;;4.10;1.20;;;;;;;15.59;45.77;101707.66;5033504;28;20075;-95
2020/12/01 12:06:36;;;;;;;9.13;1.70;;;;;;;15.60;46.05;101710.22;5034346;28;20167;-95
2020/12/01 12:09:07;;;;;;;7.78;1.30;;;;;;;15.64;45.73;101721.44;5033363;28;20030;-96
2020/12/01 12:11:33;;;;;;;9.70;1.48;;;;;;;14.84;47.25;101710.88;5034017;28;20124;-96
2020/12/01 12:13:59;;;;;;;8.02;1.63;;;;;;;14.75;47.27;101714.97;5033168;28;20026;-96
2020/12/01 12:16:24;;;;;;;7.72;2.55;;;;;;;14.58;48.41;101704.63;5038541;28;20455;-95
2020/12/01 12:18:50;;;;;;;6.03;1.85;;;;;;;14.65;48.36;101688.28;5034578;28;20057;-96
2020/12/01 12:21:18;;;;;;;9.82;1.83;;;;;;;14.32;48.39;101693.06;5038091;28;20025;-96
2020/12/01 12:23:44;;;;;;;8.05;1.58;;;;;;;14.41;48.50;101705.66;5037088;28;20026;-96
2020/12/01 12:26:09;;;;;;;11.10;1.85;;;;;;;13.95;49.42;101692.72;5038055;28;20037;-96
2020/12/01 12:28:35;;;;;;;6.85;1.98;;;;;;;13.51;51.23;101694.47;5038408;28;20029;-96
2020/12/01 12:31:02;;;;;;;7.90;2.40;;;;;;;13.32;51.55;101684.16;5039241;28;20033;-96
2020/12/01 12:33:29;;;;;;;8.38;1.83;;;;;;;13.17;49.96;101687.66;5038187;28;20022;-95
2020/12/01 12:35:55;;;;;;;7.55;1.60;;;;;;;12.81;52.24;101691.47;5039316;28;20116;-94
2020/12/01 12:38:21;;;;;;;4.30;1.13;;;;;;;12.52;52.65;101680.81;5037767;28;20069;-96
2020/12/01 12:40:51;;;;;;;7.40;1.20;;;;;;;12.19;52.55;101697.50;5040657;28;20456;-96
2020/12/01 12:43:18;;;;;;;5.32;1.15;;;;;;;12.13;52.61;101679.41;5039611;28;20083;-96